createdAt,value
2022-11-24T00:01:07.011Z,99743.00
2022-11-24T00:03:33.533Z,99750.66
2022-11-24T00:06:10.916Z,99749.69
2022-11-24T00:08:39.413Z,99752.75
2022-11-24T00:11:07.878Z,99748.25
2022-11-24T00:13:34.253Z,99755.00
2022-11-24T00:16:06.834Z,99752.56
2022-11-24T00:18:33.278Z,99754.31
2022-11-24T00:20:59.740Z,99758.94
2022-11-24T00:23:26.729Z,99748.34
2022-11-24T00:25:53.155Z,99750.50
2022-11-24T00:28:19.602Z,99754.06
2022-11-24T00:30:46.085Z,99750.56
2022-11-24T00:33:12.537Z,99749.72
2022-11-24T00:35:38.957Z,99754.13
2022-11-24T00:38:05.380Z,99749.38
2022-11-24T00:40:34.983Z,99752.84
2022-11-24T00:43:01.673Z,99747.28
2022-11-24T00:45:28.087Z,99750.13
2022-11-24T00:47:54.482Z,99752.00
2022-11-24T00:50:21.274Z,99751.16
2022-11-24T00:52:47.701Z,99755.84
2022-11-24T00:55:14.104Z,99763.00
2022-11-24T00:57:40.509Z,99756.34
2022-11-24T01:00:07.831Z,99766.03
2022-11-24T01:02:34.292Z,99766.53
2022-11-24T01:05:00.743Z,99769.88
2022-11-24T01:07:27.187Z,99762.19
2022-11-24T01:09:53.610Z,99767.03
2022-11-24T01:12:20.105Z,99769.16
2022-11-24T01:14:46.545Z,99775.94
2022-11-24T01:17:12.935Z,99775.69
2022-11-24T01:19:39.345Z,99780.84
2022-11-24T01:22:05.801Z,99781.75
2022-11-24T01:24:32.399Z,99784.22
2022-11-24T01:26:59.325Z,99783.16
2022-11-24T01:29:25.971Z,99786.69
2022-11-24T01:31:52.374Z,99787.78
2022-11-24T01:34:19.278Z,99793.03
2022-11-24T01:36:45.720Z,99789.25
2022-11-24T01:39:13.210Z,99800.38
2022-11-24T01:41:39.941Z,99800.31
2022-11-24T01:44:27.705Z,99802.84
2022-11-24T01:47:00.739Z,99811.91
2022-11-24T01:49:37.982Z,99813.91
2022-11-24T01:52:11.521Z,99808.25
2022-11-24T01:54:43.662Z,99822.41
2022-11-24T01:57:20.821Z,99828.94
2022-11-24T01:59:49.760Z,99823.53
2022-11-24T02:02:17.416Z,99827.69
2022-11-24T02:04:45.027Z,99829.94
2022-11-24T02:07:12.773Z,99833.34
2022-11-24T02:09:45.578Z,99838.19
2022-11-24T02:12:12.462Z,99834.97
2022-11-24T02:14:41.841Z,99834.56
2022-11-24T02:17:08.657Z,99835.72
2022-11-24T02:19:41.222Z,99845.47
2022-11-24T02:22:19.911Z,99853.88
2022-11-24T02:25:01.439Z,99859.66
2022-11-24T02:27:28.092Z,99856.13
2022-11-24T02:29:54.510Z,99844.34
2022-11-24T02:32:21.870Z,99844.72
2022-11-24T02:34:48.278Z,99854.88
2022-11-24T02:37:14.662Z,99848.94
2022-11-24T02:39:41.060Z,99856.28
2022-11-24T02:42:12.925Z,99859.03
2022-11-24T02:44:45.278Z,99860.28
2022-11-24T02:47:12.957Z,99851.16
2022-11-24T02:49:39.866Z,99851.84
2022-11-24T02:52:06.986Z,99855.56
2022-11-24T02:54:33.834Z,99858.44
2022-11-24T02:57:00.953Z,99850.88
2022-11-24T02:59:27.379Z,99865.38
2022-11-24T03:01:53.878Z,99865.75
2022-11-24T03:04:20.498Z,99861.50
2022-11-24T03:06:46.922Z,99867.78
2022-11-24T03:09:13.346Z,99877.41
2022-11-24T03:11:39.916Z,99882.22
2022-11-24T03:14:06.901Z,99878.03
2022-11-24T03:16:33.833Z,99886.09
2022-11-24T03:19:00.887Z,99889.47
2022-11-24T03:21:27.641Z,99883.75
2022-11-24T03:23:54.196Z,99892.41
2022-11-24T03:26:24.168Z,99889.16
2022-11-24T03:28:53.490Z,99907.69
2022-11-24T03:31:20.032Z,99902.28
2022-11-24T03:33:46.559Z,99907.53
2022-11-24T03:36:13.013Z,99907.25
2022-11-24T03:38:39.401Z,99905.84
2022-11-24T03:41:05.874Z,99917.09
2022-11-24T03:43:32.436Z,99912.31
2022-11-24T03:45:59.089Z,99921.44
2022-11-24T03:48:25.884Z,99922.75
2022-11-24T03:50:57.270Z,99923.28
2022-11-24T03:53:25.091Z,99932.50
2022-11-24T03:55:51.646Z,99922.19
2022-11-24T03:58:18.892Z,99938.59
2022-11-24T04:00:45.549Z,99942.16
2022-11-24T04:03:12.011Z,99937.81
2022-11-24T04:05:38.489Z,99935.28
2022-11-24T04:08:05.641Z,99938.44
2022-11-24T04:10:34.090Z,99944.47
2022-11-24T04:13:00.397Z,99934.72
2022-11-24T04:15:26.814Z,99943.91
2022-11-24T04:17:55.114Z,99940.72
2022-11-24T04:20:22.341Z,99937.25
2022-11-24T04:22:51.602Z,99926.56
2022-11-24T04:25:18.130Z,99933.03
2022-11-24T04:27:44.830Z,99922.75
2022-11-24T04:30:11.426Z,99930.78
2022-11-24T04:32:37.866Z,99940.94
2022-11-24T04:35:04.758Z,99936.84
2022-11-24T04:37:31.175Z,99942.28
2022-11-24T04:39:57.594Z,99948.16
2022-11-24T04:42:24.066Z,99961.75
2022-11-24T04:44:50.460Z,99953.69
2022-11-24T04:47:20.672Z,99956.31
2022-11-24T04:49:49.005Z,99952.44
2022-11-24T04:52:19.540Z,99956.31
2022-11-24T04:54:46.800Z,99957.72
2022-11-24T04:57:19.402Z,99972.84
2022-11-24T04:59:46.126Z,99984.16
2022-11-24T05:02:13.034Z,99979.75
2022-11-24T05:04:39.991Z,99985.84
2022-11-24T05:07:07.606Z,99981.09
2022-11-24T05:09:55.225Z,99978.59
2022-11-24T05:12:20.559Z,99979.75
2022-11-24T05:14:46.962Z,99984.03
2022-11-24T05:17:13.358Z,99990.44
2022-11-24T05:19:39.745Z,99983.19
2022-11-24T05:22:06.205Z,99991.38
2022-11-24T05:24:32.929Z,99986.75
2022-11-24T05:26:59.490Z,99996.91
2022-11-24T05:29:26.000Z,100002.63
2022-11-24T05:31:52.449Z,99991.59
2022-11-24T05:34:19.539Z,99994.41
2022-11-24T05:36:55.043Z,99992.72
2022-11-24T05:39:21.489Z,99997.13
2022-11-24T05:41:48.042Z,99997.41
2022-11-24T05:44:14.507Z,99996.09
2022-11-24T05:46:40.974Z,99989.34
2022-11-24T05:49:07.465Z,99989.84
2022-11-24T05:51:34.105Z,99983.25
2022-11-24T05:54:00.543Z,99988.03
2022-11-24T05:56:26.951Z,99982.75
2022-11-24T05:58:53.450Z,99982.59
2022-11-24T06:01:19.894Z,99990.88
2022-11-24T06:03:46.298Z,99994.59
2022-11-24T06:06:12.703Z,99993.69
2022-11-24T06:08:39.222Z,99998.19
2022-11-24T06:11:22.674Z,100001.47
2022-11-24T06:13:49.264Z,100013.06
2022-11-24T06:16:17.121Z,100009.16
2022-11-24T06:18:43.719Z,100024.81
2022-11-24T06:21:11.472Z,100035.78
2022-11-24T06:23:38.823Z,100040.22
2022-11-24T06:26:05.812Z,100043.44
2022-11-24T06:28:32.525Z,100057.84
2022-11-24T06:31:03.578Z,100046.50
2022-11-24T06:33:34.493Z,100054.22
2022-11-24T06:36:03.400Z,100055.78
2022-11-24T06:38:30.350Z,100057.75
2022-11-24T06:41:08.334Z,100067.03
2022-11-24T06:43:35.943Z,100062.06
2022-11-24T06:46:03.425Z,100068.44
2022-11-24T06:48:30.851Z,100073.00
2022-11-24T06:51:02.121Z,100077.72
2022-11-24T06:53:32.737Z,100088.88
2022-11-24T06:55:59.893Z,100089.94
2022-11-24T06:58:26.610Z,100089.09
2022-11-24T07:00:53.135Z,100090.88
2022-11-24T07:03:19.984Z,100091.81
2022-11-24T07:05:46.515Z,100103.03
2022-11-24T07:08:17.633Z,100101.84
2022-11-24T07:10:44.465Z,100112.47
2022-11-24T07:13:10.918Z,100115.41
2022-11-24T07:15:37.414Z,100122.31
2022-11-24T07:18:04.237Z,100128.84
2022-11-24T07:20:30.767Z,100126.63
2022-11-24T07:22:58.123Z,100126.91
2022-11-24T07:25:25.747Z,100128.94
2022-11-24T07:27:59.331Z,100124.91
2022-11-24T07:30:27.162Z,100126.38
2022-11-24T07:33:03.071Z,100128.53
2022-11-24T07:35:30.433Z,100139.59
2022-11-24T07:37:58.230Z,100149.34
2022-11-24T07:40:26.824Z,100159.44
2022-11-24T07:42:54.152Z,100154.16
2022-11-24T07:45:21.373Z,100158.00
2022-11-24T07:47:47.882Z,100160.50
2022-11-24T07:50:14.490Z,100167.38
2022-11-24T07:52:41.035Z,100174.38
2022-11-24T07:55:08.097Z,100181.09
2022-11-24T07:57:34.803Z,100178.53
2022-11-24T08:00:01.834Z,100180.91
2022-11-24T08:02:28.275Z,100185.50
2022-11-24T08:04:54.734Z,100184.25
2022-11-24T08:07:21.246Z,100189.91
2022-11-24T08:09:48.273Z,100201.00
2022-11-24T08:12:16.448Z,100192.81
2022-11-24T08:14:43.505Z,100192.22
2022-11-24T08:17:10.013Z,100193.91
2022-11-24T08:19:36.524Z,100188.97
2022-11-24T08:22:02.932Z,100190.81
2022-11-24T08:24:31.421Z,100198.06
2022-11-24T08:26:58.007Z,100194.31
2022-11-24T08:29:28.332Z,100191.03
2022-11-24T08:31:57.185Z,100185.56
2022-11-24T08:34:25.948Z,100182.31
2022-11-24T08:36:52.644Z,100178.09
2022-11-24T08:39:20.275Z,100170.97
2022-11-24T08:41:46.774Z,100174.53
2022-11-24T08:44:15.839Z,100167.41
2022-11-24T08:46:42.377Z,100165.19
2022-11-24T08:49:09.750Z,100165.44
2022-11-24T08:51:36.727Z,100168.78
2022-11-24T08:54:03.501Z,100172.84
2022-11-24T08:56:32.112Z,100179.97
2022-11-24T08:58:58.655Z,100182.19
2022-11-24T09:01:26.508Z,100183.78
2022-11-24T09:03:53.504Z,100175.91
2022-11-24T09:06:23.625Z,100175.81
2022-11-24T09:08:51.657Z,100178.53
2022-11-24T09:11:18.734Z,100178.28
2022-11-24T09:13:45.577Z,100172.91
2022-11-24T09:16:15.265Z,100180.41
2022-11-24T09:18:41.821Z,100187.50
2022-11-24T09:21:19.792Z,100186.53
2022-11-24T09:23:48.747Z,100207.03
2022-11-24T09:26:18.823Z,100204.66
2022-11-24T09:28:45.913Z,100207.53
2022-11-24T09:31:14.438Z,100205.31
2022-11-24T09:33:41.605Z,100210.91
2022-11-24T09:36:08.723Z,100214.50
2022-11-24T09:38:35.520Z,100220.63
2022-11-24T09:41:23.135Z,100228.03
2022-11-24T09:44:04.738Z,100233.41
2022-11-24T09:46:54.725Z,100237.22
2022-11-24T09:49:35.389Z,100227.09
2022-11-24T09:52:09.391Z,100231.63
2022-11-24T09:54:41.248Z,100242.34
2022-11-24T09:57:13.771Z,100238.50
2022-11-24T09:59:42.027Z,100251.94
2022-11-24T10:02:11.994Z,100262.84
2022-11-24T10:04:47.009Z,100259.25
2022-11-24T10:07:21.113Z,100261.50
2022-11-24T10:10:33.880Z,100270.84
2022-11-24T10:13:31.360Z,100277.31
2022-11-24T10:16:31.519Z,100287.34
2022-11-24T10:19:13.077Z,100291.63
2022-11-24T10:22:04.167Z,100295.84
2022-11-24T10:25:10.802Z,100286.84
2022-11-24T10:27:42.717Z,100278.31
2022-11-24T10:30:18.726Z,100291.00
2022-11-24T10:32:48.165Z,100283.78
2022-11-24T10:35:24.329Z,100286.84
2022-11-24T10:38:21.912Z,100290.22
2022-11-24T10:40:57.489Z,100291.78
2022-11-24T10:43:29.321Z,100292.97
2022-11-24T10:46:28.969Z,100298.81
2022-11-24T10:49:00.303Z,100292.91
2022-11-24T10:51:47.510Z,100288.72
2022-11-24T10:54:18.220Z,100288.63
2022-11-24T10:56:46.383Z,100292.22
2022-11-24T10:59:28.896Z,100286.16
2022-11-24T11:01:55.944Z,100288.19
2022-11-24T11:04:31.532Z,100290.16
2022-11-24T11:07:18.446Z,100292.59
2022-11-24T11:09:45.832Z,100297.97
2022-11-24T11:12:43.984Z,100303.84
2022-11-24T11:15:31.106Z,100304.00
2022-11-24T11:18:01.287Z,100304.44
2022-11-24T11:20:31.638Z,100315.38
2022-11-24T11:23:01.771Z,100325.31
2022-11-24T11:25:32.834Z,100324.72
2022-11-24T11:28:23.331Z,100334.38
2022-11-24T11:34:16.652Z,100330.84
2022-11-24T11:36:53.308Z,100337.47
2022-11-24T11:39:30.261Z,100339.38
2022-11-24T11:42:08.115Z,100339.66
2022-11-24T11:44:37.215Z,100335.28
2022-11-24T11:47:32.133Z,100334.81
2022-11-24T11:49:58.638Z,100334.66
2022-11-24T11:52:43.811Z,100334.06
2022-11-24T11:55:17.882Z,100342.53
2022-11-24T11:58:01.716Z,100342.59
2022-11-24T12:00:31.607Z,100339.16
2022-11-24T12:03:42.244Z,100349.94
2022-11-24T12:06:16.703Z,100356.91
2022-11-24T12:09:18.534Z,100359.44
2022-11-24T12:11:46.717Z,100348.88
2022-11-24T12:14:47.069Z,100360.88
2022-11-24T12:17:37.904Z,100358.72
2022-11-24T12:20:20.812Z,100361.09
2022-11-24T12:23:11.173Z,100358.31
2022-11-24T12:26:00.461Z,100350.72
2022-11-24T12:28:39.489Z,100356.84
2022-11-24T12:31:21.297Z,100366.19
2022-11-24T12:34:32.807Z,100366.84
2022-11-24T12:37:09.398Z,100367.38
2022-11-24T12:39:43.066Z,100371.25
2022-11-24T12:42:39.444Z,100371.63
2022-11-24T12:45:08.975Z,100371.09
2022-11-24T12:48:00.502Z,100381.75
2022-11-24T12:50:31.011Z,100379.09
2022-11-24T12:53:06.005Z,100388.72
2022-11-24T12:55:33.902Z,100380.56
2022-11-24T12:58:11.974Z,100379.25
2022-11-24T13:00:58.607Z,100381.56
2022-11-24T13:03:47.542Z,100392.50
2022-11-24T13:06:23.841Z,100383.94
2022-11-24T13:08:50.535Z,100393.84
2022-11-24T13:11:23.113Z,100391.00
2022-11-24T13:14:13.142Z,100404.97
2022-11-24T13:17:28.140Z,100400.03
2022-11-24T13:19:46.904Z,100400.56
2022-11-24T13:22:24.269Z,100407.44
2022-11-24T13:25:18.811Z,100416.63
2022-11-24T13:27:48.431Z,100428.69
2022-11-24T13:30:32.934Z,100417.56
2022-11-24T13:33:16.209Z,100420.66
2022-11-24T13:36:02.166Z,100429.84
2022-11-24T13:38:52.571Z,100422.91
2022-11-24T13:41:34.233Z,100416.91
2022-11-24T13:44:15.845Z,100425.50
2022-11-24T13:47:04.779Z,100422.53
2022-11-24T13:49:38.951Z,100432.84
2022-11-24T13:52:36.595Z,100437.34
2022-11-24T13:55:19.518Z,100454.53
2022-11-24T13:57:49.136Z,100450.94
2022-11-24T14:00:26.398Z,100454.38
2022-11-24T14:02:57.742Z,100464.28
2022-11-24T14:05:33.511Z,100468.34
2022-11-24T14:08:00.235Z,100456.69
2022-11-24T14:10:32.330Z,100463.28
2022-11-24T14:13:25.259Z,100468.56
2022-11-24T14:16:00.641Z,100480.47
2022-11-24T14:18:29.161Z,100486.22
2022-11-24T14:21:01.346Z,100501.88
2022-11-24T14:23:27.769Z,100495.28
2022-11-24T14:25:54.506Z,100497.88
2022-11-24T14:28:26.779Z,100490.88
2022-11-24T14:31:22.889Z,100506.81
2022-11-24T14:33:50.086Z,100504.00
2022-11-24T14:36:18.066Z,100509.09
2022-11-24T14:38:44.710Z,100512.63
2022-11-24T14:41:23.008Z,100521.47
2022-11-24T14:43:49.674Z,100536.47
2022-11-24T14:46:19.990Z,100534.34
2022-11-24T14:48:50.102Z,100536.31
2022-11-24T14:51:49.615Z,100544.50
2022-11-24T14:54:21.412Z,100541.94
2022-11-24T14:57:01.679Z,100544.38
2022-11-24T14:59:29.918Z,100540.41
2022-11-24T15:01:57.576Z,100542.50
2022-11-24T15:05:02.046Z,100549.06
2022-11-24T15:07:28.908Z,100549.41
2022-11-24T15:10:00.749Z,100552.25
2022-11-24T15:12:36.627Z,100545.56
2022-11-24T15:15:06.694Z,100549.16
2022-11-24T15:17:33.830Z,100549.38
2022-11-24T15:20:02.639Z,100551.56
2022-11-24T15:22:29.097Z,100556.31
2022-11-24T15:24:55.548Z,100556.28
2022-11-24T15:27:21.937Z,100562.75
2022-11-24T15:29:48.450Z,100576.09
2022-11-24T15:32:15.707Z,100576.41
2022-11-24T15:34:42.112Z,100576.50
2022-11-24T15:37:09.333Z,100577.78
2022-11-24T15:39:35.949Z,100584.00
2022-11-24T15:42:02.413Z,100576.41
2022-11-24T15:44:29.544Z,100567.13
2022-11-24T15:46:56.042Z,100571.78
2022-11-24T15:49:22.473Z,100569.41
2022-11-24T15:51:48.927Z,100569.25
2022-11-24T15:54:18.723Z,100567.22
2022-11-24T15:56:45.612Z,100561.66
2022-11-24T15:59:20.709Z,100558.75
2022-11-24T16:01:49.579Z,100557.66
2022-11-24T16:04:16.342Z,100561.09
2022-11-24T16:06:42.891Z,100564.22
2022-11-24T16:09:14.530Z,100566.38
2022-11-24T16:11:40.991Z,100562.19
2022-11-24T16:14:07.487Z,100581.41
2022-11-24T16:16:33.980Z,100585.63
2022-11-24T16:19:00.429Z,100588.56
2022-11-24T16:21:26.851Z,100583.00
2022-11-24T16:23:53.883Z,100588.56
2022-11-24T16:26:20.553Z,100595.56
2022-11-24T16:28:47.202Z,100602.94
2022-11-24T16:31:15.817Z,100599.34
2022-11-24T16:33:44.541Z,100596.81
2022-11-24T16:36:11.087Z,100607.19
2022-11-24T16:38:37.491Z,100600.13
2022-11-24T16:41:03.959Z,100614.03
2022-11-24T16:43:30.413Z,100609.47
2022-11-24T16:46:17.857Z,100619.63
2022-11-24T16:48:46.584Z,100616.88
2022-11-24T16:51:13.659Z,100611.47
2022-11-24T16:53:43.357Z,100609.50
2022-11-24T16:56:09.966Z,100615.66
2022-11-24T16:58:40.302Z,100615.56
2022-11-24T17:01:08.356Z,100613.25
2022-11-24T17:03:38.157Z,100609.22
2022-11-24T17:06:11.315Z,100619.16
2022-11-24T17:08:39.674Z,100623.50
2022-11-24T17:11:13.373Z,100621.78
2022-11-24T17:13:40.323Z,100616.75
2022-11-24T17:16:09.031Z,100627.91
2022-11-24T17:18:36.205Z,100637.69
2022-11-24T17:21:09.264Z,100631.81
2022-11-24T17:23:36.489Z,100634.66
2022-11-24T17:26:21.652Z,100621.25
2022-11-24T17:28:48.104Z,100621.47
2022-11-24T17:31:25.500Z,100625.66
2022-11-24T17:33:57.268Z,100634.81
2022-11-24T17:36:24.272Z,100648.00
2022-11-24T17:38:50.940Z,100650.34
2022-11-24T17:41:18.559Z,100657.41
2022-11-24T17:43:50.157Z,100665.63
2022-11-24T17:46:16.825Z,100677.34
2022-11-24T17:48:43.261Z,100669.38
2022-11-24T17:51:14.997Z,100674.81
2022-11-24T17:53:43.118Z,100673.09
2022-11-24T17:56:14.844Z,100670.38
2022-11-24T17:58:43.137Z,100668.19
2022-11-24T18:01:11.037Z,100669.94
2022-11-24T18:03:41.995Z,100676.28
2022-11-24T18:06:13.787Z,100671.16
2022-11-24T18:08:42.342Z,100683.28
2022-11-24T18:11:12.210Z,100688.00
2022-11-24T18:16:28.007Z,100699.72
2022-11-24T18:19:07.886Z,100701.22
2022-11-24T18:21:39.386Z,100699.28
2022-11-24T18:24:07.065Z,100694.63
2022-11-24T18:26:33.520Z,100696.63
2022-11-24T18:28:59.925Z,100703.09
2022-11-24T18:31:26.660Z,100695.94
2022-11-24T18:33:53.089Z,100693.97
2022-11-24T18:36:25.769Z,100688.22
2022-11-24T18:38:56.292Z,100689.31
2022-11-24T18:41:22.708Z,100693.34
2022-11-24T18:43:49.090Z,100683.03
2022-11-24T18:46:17.317Z,100687.84
2022-11-24T18:48:44.340Z,100693.56
2022-11-24T18:51:14.858Z,100688.56
2022-11-24T18:53:42.833Z,100693.13
2022-11-24T18:56:13.453Z,100703.84
2022-11-24T18:58:39.838Z,100705.25
2022-11-24T19:01:18.127Z,100710.88
2022-11-24T19:03:48.903Z,100703.69
2022-11-24T19:06:33.881Z,100717.84
2022-11-24T19:09:26.662Z,100720.47
2022-11-24T19:11:53.125Z,100727.59
2022-11-24T19:14:19.715Z,100734.94
2022-11-24T19:16:47.974Z,100737.84
2022-11-24T19:19:15.090Z,100739.56
2022-11-24T19:21:41.632Z,100725.63
2022-11-24T19:24:13.012Z,100727.56
2022-11-24T19:26:40.366Z,100732.72
2022-11-24T19:29:08.019Z,100721.66
2022-11-24T19:31:35.288Z,100713.09
2022-11-24T19:34:03.061Z,100722.09
2022-11-24T19:36:30.039Z,100716.09
2022-11-24T19:38:57.879Z,100724.16
2022-11-24T19:41:29.588Z,100719.69
2022-11-24T19:43:56.671Z,100725.56
2022-11-24T19:46:27.317Z,100723.81
2022-11-24T19:48:56.848Z,100725.47
2022-11-24T19:51:25.579Z,100724.47
2022-11-24T19:53:52.864Z,100726.13
2022-11-24T19:56:21.942Z,100723.16
2022-11-24T19:58:49.494Z,100728.03
2022-11-24T20:01:27.575Z,100735.88
2022-11-24T20:03:55.734Z,100742.06
2022-11-24T20:06:22.246Z,100749.53
2022-11-24T20:08:49.063Z,100748.63
2022-11-24T20:11:18.661Z,100743.50
2022-11-24T20:13:46.346Z,100742.81
2022-11-24T20:16:17.385Z,100749.13
2022-11-24T20:18:46.901Z,100741.22
2022-11-24T20:21:19.585Z,100737.59
2022-11-24T20:23:51.667Z,100737.97
2022-11-24T20:26:20.817Z,100743.91
2022-11-24T20:28:47.565Z,100744.44
2022-11-24T20:31:17.294Z,100744.44
2022-11-24T20:33:44.797Z,100742.03
2022-11-24T20:36:16.888Z,100742.25
2022-11-24T20:38:44.422Z,100746.63
2022-11-24T20:41:19.900Z,100753.03
2022-11-24T20:43:48.187Z,100755.59
2022-11-24T20:46:20.271Z,100755.22
2022-11-24T20:48:47.070Z,100760.91
2022-11-24T20:51:43.717Z,100759.50
2022-11-24T20:54:12.843Z,100775.38
2022-11-24T20:56:42.230Z,100778.06
2022-11-24T20:59:12.214Z,100775.00
2022-11-24T21:01:42.209Z,100771.50
2022-11-24T21:04:15.446Z,100783.84
2022-11-24T21:06:41.982Z,100789.56
2022-11-24T21:09:09.373Z,100796.25
2022-11-24T21:11:37.649Z,100795.09
2022-11-24T21:14:04.814Z,100797.81
2022-11-24T21:16:33.800Z,100799.16
2022-11-24T21:19:02.766Z,100806.16
2022-11-24T21:21:34.000Z,100807.97
2022-11-24T21:24:06.055Z,100801.34
2022-11-24T21:26:36.887Z,100804.00
2022-11-24T21:29:03.913Z,100799.75
2022-11-24T21:31:30.450Z,100793.25
2022-11-24T21:33:56.894Z,100796.47
2022-11-24T21:36:25.796Z,100796.19
2022-11-24T21:38:57.123Z,100797.41
2022-11-24T21:41:25.559Z,100794.38
2022-11-24T21:43:52.118Z,100793.00
2022-11-24T21:46:18.767Z,100802.94
2022-11-24T21:48:45.233Z,100806.50
2022-11-24T21:51:14.466Z,100868.91
2022-11-24T21:53:41.917Z,100873.41
2022-11-24T21:56:12.860Z,100886.06
2022-11-24T21:58:51.207Z,100894.66
2022-11-24T22:01:19.910Z,100895.28
2022-11-24T22:03:46.411Z,100899.00
2022-11-24T22:06:13.588Z,100913.44
2022-11-24T22:08:40.776Z,100920.59
2022-11-24T22:11:11.849Z,100932.81
2022-11-24T22:13:38.919Z,100944.03
2022-11-24T22:16:10.822Z,100960.41
2022-11-24T22:18:39.834Z,100967.59
2022-11-24T22:21:08.458Z,100973.53
2022-11-24T22:23:35.741Z,100970.03
2022-11-24T22:26:07.532Z,100973.63
2022-11-24T22:28:35.423Z,100988.66
2022-11-24T22:31:10.917Z,100988.75
2022-11-24T22:33:37.688Z,101008.53
2022-11-24T22:36:04.370Z,101024.53
2022-11-24T22:38:31.238Z,101033.03
2022-11-24T22:41:03.077Z,101027.69
2022-11-24T22:43:34.357Z,101046.03
2022-11-24T22:46:12.123Z,101047.06
2022-11-24T22:48:39.787Z,101047.59
2022-11-24T22:51:29.475Z,101042.97
2022-11-24T22:53:57.901Z,101051.13
2022-11-24T22:56:24.804Z,101051.38
2022-11-24T22:58:51.583Z,101059.06
2022-11-24T23:01:20.811Z,101060.84
2022-11-24T23:03:48.795Z,101066.19
2022-11-24T23:06:17.575Z,101073.63
2022-11-24T23:08:44.309Z,101086.97
2022-11-24T23:11:12.287Z,101095.19
2022-11-24T23:13:38.781Z,101095.25
2022-11-24T23:16:16.834Z,101100.25
2022-11-24T23:18:44.558Z,101095.63
2022-11-24T23:21:19.310Z,101097.16
2022-11-24T23:23:47.168Z,101118.75
2022-11-24T23:26:16.312Z,101107.84
2022-11-24T23:28:45.737Z,101126.22
2022-11-24T23:31:16.472Z,101126.22
2022-11-24T23:33:43.526Z,101124.06
2022-11-24T23:36:15.383Z,101128.81
2022-11-24T23:38:42.753Z,101119.25
2022-11-24T23:41:31.612Z,101116.59
2022-11-24T23:43:58.188Z,101098.13
2022-11-24T23:46:26.910Z,101093.91
2022-11-24T23:48:54.698Z,101085.09
2022-11-24T23:51:27.075Z,101090.66
2022-11-24T23:53:54.377Z,101091.53
2022-11-24T23:56:27.201Z,101108.69
2022-11-24T23:58:53.928Z,101123.84
